PWSweather.com
Personal Weather Stations
Station Observations
79674
AfterstegDE 79674

AfterstegDE 79674

Lat: 47.84344, Lon: 7.92844

Elevation: 809

Station Type: Davis Vantage 2 Aktive

Latest ConditionsUpdated 8:32:09 AM GMT+01:01 Tuesday, Feb 9, 2016
Currently Today's Max Today's Min Today's Average
Temperature 40.6°F4.8°C 41.7°F5.4°C 38.7°F3.7°C 40.3°F4.6°C
Dew Point 38.8°F3.8°C 38.8°F3.8°C 35.4°F1.9°C 37.1°F2.8°C
Winds 8.1 mph ESE13.0 kmh ESE 14.1 mph SE22.7 kmh SE - 8.3 mph 13.4 kmh
Wind Gusts 11.0 mph17.7 kmh 29.1 mph46.8 kmh - -
Humidity 93% 93% 84% 88%
Pressure 29.65 in1004.1 mb 29.88 in1011.9 mb 29.65 in1004.1 mb -
Precipitation - 0.28 in7.1 mm - -
Hour Temp Dew Point Humidity Winds Wind Gusts Pressure Precip Precip Rate Daily Precip Total
08:32 AM 40.6°F4.8°C 38.8°F3.8°C 93% 8.1 mph ESE13.0 kmh ESE 11.0 mph17.7 kmh 29.65 in1004.1 mb - 0.05 in1.3 mm 0.28 in7.1 mm
08:27 AM 40.6°F4.8°C 38.8°F3.8°C 93% 8.1 mph SE13.0 kmh SE 11.0 mph17.7 kmh 29.65 in1004.1 mb - 0.08 in2.0 mm 0.28 in7.1 mm
08:22 AM 40.5°F4.7°C 38.7°F3.7°C 93% 6.9 mph ESE11.1 kmh ESE 6.9 mph11.1 kmh 29.66 in1004.4 mb - 0.16 in4.1 mm 0.27 in6.9 mm
08:17 AM 40.5°F4.7°C 38.3°F3.5°C 92% 6.0 mph E9.7 kmh E 6.9 mph11.1 kmh 29.66 in1004.4 mb - 0.00 in0.0 mm 0.27 in6.9 mm
08:12 AM 40.5°F4.7°C 38.3°F3.5°C 92% 6.0 mph SE9.7 kmh SE 4.9 mph7.9 kmh 29.66 in1004.4 mb - 0.00 in0.0 mm 0.27 in6.9 mm
08:07 AM 40.5°F4.7°C 38.3°F3.5°C 92% 8.1 mph SE13.0 kmh SE 6.0 mph9.7 kmh 29.66 in1004.4 mb - 0.00 in0.0 mm 0.26 in6.6 mm
08:02 AM 40.5°F4.7°C 38.3°F3.5°C 92% 6.9 mph SE11.1 kmh SE 6.9 mph11.1 kmh 29.66 in1004.4 mb - 0.03 in0.8 mm 0.26 in6.6 mm
07:57 AM 40.5°F4.7°C 38.3°F3.5°C 92% 6.9 mph ESE11.1 kmh ESE 6.9 mph11.1 kmh 29.67 in1004.7 mb - 0.06 in1.5 mm 0.26 in6.6 mm
07:52 AM 40.5°F4.7°C 38.1°F3.4°C 91% 8.1 mph E13.0 kmh E 6.0 mph9.7 kmh 29.67 in1004.7 mb - 0.06 in1.5 mm 0.25 in6.4 mm
07:47 AM 40.3°F4.6°C 38.1°F3.4°C 92% 6.9 mph SE11.1 kmh SE 10.1 mph16.3 kmh 29.67 in1004.7 mb - 0.07 in1.8 mm 0.25 in6.4 mm
07:42 AM 40.3°F4.6°C 37.9°F3.3°C 91% 6.0 mph ESE9.7 kmh ESE 6.9 mph11.1 kmh 29.68 in1005.1 mb - 0.09 in2.3 mm 0.24 in6.1 mm
07:37 AM 40.3°F4.6°C 37.9°F3.3°C 91% 4.0 mph SE6.4 kmh SE 6.9 mph11.1 kmh 29.68 in1005.1 mb - 0.05 in1.3 mm 0.24 in6.1 mm
07:32 AM 40.5°F4.7°C 38.1°F3.4°C 91% 4.9 mph SE7.9 kmh SE 2.0 mph3.2 kmh 29.69 in1005.4 mb - 0.06 in1.5 mm 0.24 in6.1 mm
07:27 AM 40.5°F4.7°C 38.1°F3.4°C 91% 6.9 mph SE11.1 kmh SE 4.0 mph6.4 kmh 29.70 in1005.8 mb - 0.08 in2.0 mm 0.23 in5.8 mm
07:22 AM 40.6°F4.8°C 38.3°F3.5°C 91% 6.9 mph SE11.1 kmh SE 10.1 mph16.3 kmh 29.70 in1005.8 mb - 0.04 in1.0 mm 0.22 in5.6 mm
07:17 AM 40.6°F4.8°C 38.3°F3.5°C 91% 8.1 mph SE13.0 kmh SE 6.0 mph9.7 kmh 29.70 in1005.8 mb - 0.05 in1.3 mm 0.22 in5.6 mm
07:12 AM 40.8°F4.9°C 38.5°F3.6°C 91% 8.1 mph ESE13.0 kmh ESE 6.9 mph11.1 kmh 29.71 in1006.1 mb - 0.07 in1.8 mm 0.22 in5.6 mm
07:07 AM 40.8°F4.9°C 38.1°F3.4°C 90% 6.9 mph ESE11.1 kmh ESE 8.9 mph14.3 kmh 29.71 in1006.1 mb - 0.06 in1.5 mm 0.21 in5.3 mm
07:02 AM 40.8°F4.9°C 38.1°F3.4°C 90% 6.9 mph SSE11.1 kmh SSE 8.1 mph13.0 kmh 29.71 in1006.1 mb - 0.06 in1.5 mm 0.20 in5.1 mm
06:57 AM 41.0°F5.0°C 38.3°F3.5°C 90% 8.1 mph SE13.0 kmh SE 6.0 mph9.7 kmh 29.72 in1006.4 mb - 0.06 in1.5 mm 0.20 in5.1 mm
06:52 AM 41.2°F5.1°C 38.5°F3.6°C 90% 8.9 mph ESE14.3 kmh ESE 8.1 mph13.0 kmh 29.72 in1006.4 mb - 0.03 in0.8 mm 0.20 in5.1 mm
06:47 AM 41.2°F5.1°C 38.5°F3.6°C 90% 10.1 mph ESE16.3 kmh ESE 14.1 mph22.7 kmh 29.73 in1006.8 mb - 0.03 in0.8 mm 0.19 in4.8 mm
06:42 AM 41.2°F5.1°C 38.5°F3.6°C 90% 10.1 mph ENE16.3 kmh ENE 4.9 mph7.9 kmh 29.73 in1006.8 mb - 0.04 in1.0 mm 0.19 in4.8 mm
06:37 AM 41.0°F5.0°C 38.3°F3.5°C 90% 10.1 mph ENE16.3 kmh ENE 8.1 mph13.0 kmh 29.74 in1007.1 mb - 0.08 in2.0 mm 0.19 in4.8 mm
06:32 AM 41.2°F5.1°C 38.5°F3.6°C 90% 12.1 mph ESE19.5 kmh ESE 12.1 mph19.5 kmh 29.73 in1006.8 mb - 0.27 in6.9 mm 0.18 in4.6 mm
06:27 AM 41.2°F5.1°C 38.5°F3.6°C 90% 13.0 mph SE20.9 kmh SE 6.9 mph11.1 kmh 29.73 in1006.8 mb - 0.17 in4.3 mm 0.17 in4.3 mm
06:22 AM 41.2°F5.1°C 38.5°F3.6°C 90% 10.1 mph ESE16.3 kmh ESE 13.0 mph20.9 kmh 29.74 in1007.1 mb - 0.04 in1.0 mm 0.16 in4.1 mm
06:17 AM 41.0°F5.0°C 38.3°F3.5°C 90% 6.9 mph SE11.1 kmh SE 10.1 mph16.3 kmh 29.75 in1007.5 mb - 0.04 in1.0 mm 0.16 in4.1 mm
06:12 AM 41.0°F5.0°C 37.9°F3.3°C 89% 8.1 mph SSE13.0 kmh SSE 0.9 mph1.4 kmh 29.75 in1007.5 mb - 0.04 in1.0 mm 0.15 in3.8 mm
06:07 AM 41.0°F5.0°C 37.9°F3.3°C 89% 8.1 mph SE13.0 kmh SE 11.0 mph17.7 kmh 29.75 in1007.5 mb - 0.06 in1.5 mm 0.15 in3.8 mm
06:02 AM 41.2°F5.1°C 38.1°F3.4°C 89% 6.9 mph SE11.1 kmh SE 10.1 mph16.3 kmh 29.75 in1007.5 mb - 0.06 in1.5 mm 0.15 in3.8 mm
05:57 AM 41.2°F5.1°C 37.9°F3.3°C 88% 8.1 mph S13.0 kmh S 4.0 mph6.4 kmh 29.76 in1007.8 mb - 0.00 in0.0 mm 0.14 in3.6 mm
05:52 AM 41.2°F5.1°C 37.9°F3.3°C 88% 6.9 mph E11.1 kmh E 4.0 mph6.4 kmh 29.77 in1008.1 mb - 0.00 in0.0 mm 0.13 in3.3 mm
05:47 AM 41.0°F5.0°C 37.8°F3.2°C 88% 4.9 mph ESE7.9 kmh ESE 2.9 mph4.7 kmh 29.77 in1008.1 mb - 0.00 in0.0 mm 0.13 in3.3 mm
05:42 AM 40.8°F4.9°C 37.6°F3.1°C 88% 4.0 mph ESE6.4 kmh ESE 6.9 mph11.1 kmh 29.77 in1008.1 mb - 0.03 in0.8 mm 0.13 in3.3 mm
05:37 AM 40.8°F4.9°C 37.6°F3.1°C 88% 4.9 mph ESE7.9 kmh ESE 2.0 mph3.2 kmh 29.77 in1008.1 mb - 0.03 in0.8 mm 0.13 in3.3 mm
05:32 AM 41.0°F5.0°C 37.4°F3.0°C 87% 6.0 mph E9.7 kmh E 2.9 mph4.7 kmh 29.77 in1008.1 mb - 0.03 in0.8 mm 0.13 in3.3 mm
05:27 AM 41.2°F5.1°C 37.4°F3.0°C 86% 6.0 mph SE9.7 kmh SE 4.0 mph6.4 kmh 29.77 in1008.1 mb - 0.00 in0.0 mm 0.13 in3.3 mm
05:22 AM 41.4°F5.2°C 37.2°F2.9°C 85% 4.9 mph E7.9 kmh E 8.1 mph13.0 kmh 29.77 in1008.1 mb - 0.00 in0.0 mm 0.13 in3.3 mm
05:17 AM 41.7°F5.4°C 37.2°F2.9°C 84% 6.0 mph NE9.7 kmh NE -- 29.77 in1008.1 mb - 0.00 in0.0 mm 0.12 in3.0 mm
05:12 AM 41.7°F5.4°C 37.2°F2.9°C 84% 8.9 mph SE14.3 kmh SE 6.0 mph9.7 kmh 29.77 in1008.1 mb - 0.00 in0.0 mm 0.12 in3.0 mm
05:07 AM 41.5°F5.3°C 37.0°F2.8°C 84% 10.1 mph ESE16.3 kmh ESE 10.1 mph16.3 kmh 29.78 in1008.5 mb - 0.00 in0.0 mm 0.12 in3.0 mm
05:02 AM 41.5°F5.3°C 37.4°F3.0°C 85% 8.1 mph SE13.0 kmh SE 12.1 mph19.5 kmh 29.78 in1008.5 mb - 0.00 in0.0 mm 0.12 in3.0 mm
04:57 AM 41.5°F5.3°C 37.4°F3.0°C 85% 8.1 mph SSE13.0 kmh SSE 10.1 mph16.3 kmh 29.78 in1008.5 mb - 0.00 in0.0 mm 0.12 in3.0 mm
04:52 AM 41.4°F5.2°C 37.2°F2.9°C 85% 8.1 mph 13.0 kmh 8.9 mph14.3 kmh 29.78 in1008.5 mb - 0.00 in0.0 mm 0.12 in3.0 mm
04:47 AM 41.2°F5.1°C 37.4°F3.0°C 86% 6.9 mph SSE11.1 kmh SSE 10.1 mph16.3 kmh 29.79 in1008.8 mb - 0.00 in0.0 mm 0.12 in3.0 mm
04:42 AM 41.0°F5.0°C 37.2°F2.9°C 86% 6.9 mph SE11.1 kmh SE 8.1 mph13.0 kmh 29.79 in1008.8 mb - 0.00 in0.0 mm 0.12 in3.0 mm
04:37 AM 41.0°F5.0°C 37.2°F2.9°C 86% 8.1 mph SE13.0 kmh SE 4.9 mph7.9 kmh 29.79 in1008.8 mb - 0.00 in0.0 mm 0.12 in3.0 mm
04:32 AM 41.0°F5.0°C 37.2°F2.9°C 86% 8.9 mph SE14.3 kmh SE 6.0 mph9.7 kmh 29.80 in1009.1 mb - 0.00 in0.0 mm 0.12 in3.0 mm
04:27 AM 41.0°F5.0°C 37.4°F3.0°C 87% 11.0 mph SSE17.7 kmh SSE 10.1 mph16.3 kmh 29.79 in1008.8 mb - 0.00 in0.0 mm 0.12 in3.0 mm
04:22 AM 40.8°F4.9°C 37.2°F2.9°C 87% 11.0 mph E17.7 kmh E 4.9 mph7.9 kmh 29.80 in1009.1 mb - 0.00 in0.0 mm 0.12 in3.0 mm
04:17 AM 40.8°F4.9°C 37.0°F2.8°C 86% 8.1 mph SSE13.0 kmh SSE 8.1 mph13.0 kmh 29.81 in1009.5 mb - 0.00 in0.0 mm 0.11 in2.8 mm
04:12 AM 40.8°F4.9°C 37.0°F2.8°C 86% 8.1 mph SE13.0 kmh SE 8.1 mph13.0 kmh 29.81 in1009.5 mb - 0.00 in0.0 mm 0.11 in2.8 mm
04:07 AM 40.8°F4.9°C 37.0°F2.8°C 86% 8.9 mph E14.3 kmh E 8.1 mph13.0 kmh 29.81 in1009.5 mb - 0.00 in0.0 mm 0.11 in2.8 mm
04:02 AM 40.8°F4.9°C 37.0°F2.8°C 86% 10.1 mph E16.3 kmh E 8.9 mph14.3 kmh 29.82 in1009.8 mb - 0.00 in0.0 mm 0.11 in2.8 mm
03:57 AM 40.6°F4.8°C 37.0°F2.8°C 87% 10.1 mph SE16.3 kmh SE 4.9 mph7.9 kmh 29.82 in1009.8 mb - 0.00 in0.0 mm 0.11 in2.8 mm
03:52 AM 40.6°F4.8°C 37.0°F2.8°C 87% 10.1 mph E16.3 kmh E 13.0 mph20.9 kmh 29.83 in1010.2 mb - 0.00 in0.0 mm 0.11 in2.8 mm
03:47 AM 40.6°F4.8°C 37.0°F2.8°C 87% 10.1 mph SSE16.3 kmh SSE 13.0 mph20.9 kmh 29.82 in1009.8 mb - 0.00 in0.0 mm 0.11 in2.8 mm
03:42 AM 40.6°F4.8°C 37.0°F2.8°C 87% 10.1 mph E16.3 kmh E 14.1 mph22.7 kmh 29.82 in1009.8 mb - 0.00 in0.0 mm 0.11 in2.8 mm
03:37 AM 40.6°F4.8°C 37.0°F2.8°C 87% 12.1 mph SE19.5 kmh SE 6.9 mph11.1 kmh 29.82 in1009.8 mb - 0.00 in0.0 mm 0.11 in2.8 mm
03:32 AM 40.3°F4.6°C 36.7°F2.6°C 87% 14.1 mph SE22.7 kmh SE 11.0 mph17.7 kmh 29.82 in1009.8 mb - 0.00 in0.0 mm 0.11 in2.8 mm
03:27 AM 40.3°F4.6°C 36.7°F2.6°C 87% 12.1 mph E19.5 kmh E 8.9 mph14.3 kmh 29.82 in1009.8 mb - 0.00 in0.0 mm 0.11 in2.8 mm
03:22 AM 40.3°F4.6°C 37.0°F2.8°C 88% 10.1 mph SSE16.3 kmh SSE 8.1 mph13.0 kmh 29.83 in1010.2 mb - 0.00 in0.0 mm 0.11 in2.8 mm
03:17 AM 39.9°F4.4°C 36.9°F2.7°C 89% 10.1 mph S16.3 kmh S 16.1 mph25.9 kmh 29.83 in1010.2 mb - 0.00 in0.0 mm 0.11 in2.8 mm
03:12 AM 39.7°F4.3°C 36.7°F2.6°C 89% 8.9 mph NW14.3 kmh NW 8.1 mph13.0 kmh 29.83 in1010.2 mb - 0.00 in0.0 mm 0.10 in2.5 mm
03:07 AM 39.7°F4.3°C 37.0°F2.8°C 90% 11.0 mph SSE17.7 kmh SSE 4.9 mph7.9 kmh 29.84 in1010.5 mb - 0.00 in0.0 mm 0.10 in2.5 mm
03:02 AM 39.6°F4.2°C 36.9°F2.7°C 90% 13.0 mph SE20.9 kmh SE 6.0 mph9.7 kmh 29.83 in1010.2 mb - 0.00 in0.0 mm 0.10 in2.5 mm
02:57 AM 39.6°F4.2°C 36.9°F2.7°C 90% 13.0 mph SE20.9 kmh SE 12.1 mph19.5 kmh 29.85 in1010.8 mb - 0.00 in0.0 mm 0.10 in2.5 mm
02:52 AM 39.2°F4.0°C 36.5°F2.5°C 90% 11.0 mph E17.7 kmh E 28.0 mph45.1 kmh 29.84 in1010.5 mb - 0.00 in0.0 mm 0.10 in2.5 mm
02:47 AM 39.0°F3.9°C 36.3°F2.4°C 90% 8.9 mph ESE14.3 kmh ESE 6.9 mph11.1 kmh 29.85 in1010.8 mb - 0.00 in0.0 mm 0.10 in2.5 mm
02:42 AM 39.0°F3.9°C 36.3°F2.4°C 90% 8.9 mph SE14.3 kmh SE 10.1 mph16.3 kmh 29.85 in1010.8 mb - 0.00 in0.0 mm 0.10 in2.5 mm
02:37 AM 38.8°F3.8°C 36.1°F2.3°C 90% 10.1 mph NE16.3 kmh NE 8.1 mph13.0 kmh 29.84 in1010.5 mb - 0.03 in0.8 mm 0.10 in2.5 mm
02:32 AM 38.7°F3.7°C 36.0°F2.2°C 90% 8.9 mph SE14.3 kmh SE 13.0 mph20.9 kmh 29.84 in1010.5 mb - 0.06 in1.5 mm 0.10 in2.5 mm
02:27 AM 38.8°F3.8°C 36.0°F2.2°C 89% 6.9 mph SE11.1 kmh SE 11.0 mph17.7 kmh 29.84 in1010.5 mb - 0.12 in3.0 mm 0.10 in2.5 mm
02:17 AM 39.4°F4.1°C 36.1°F2.3°C 88% 10.1 mph SE16.3 kmh SE 4.9 mph7.9 kmh 29.85 in1010.8 mb - 0.00 in0.0 mm 0.09 in2.3 mm
02:12 AM 39.4°F4.1°C 36.1°F2.3°C 88% 11.0 mph SE17.7 kmh SE 10.1 mph16.3 kmh 29.84 in1010.5 mb - 0.00 in0.0 mm 0.09 in2.3 mm
02:07 AM 39.4°F4.1°C 35.8°F2.1°C 87% 10.1 mph NE16.3 kmh NE 19.9 mph32.0 kmh 29.84 in1010.5 mb - 0.00 in0.0 mm 0.09 in2.3 mm
02:02 AM 39.4°F4.1°C 35.8°F2.1°C 87% 8.1 mph SSE13.0 kmh SSE 12.1 mph19.5 kmh 29.85 in1010.8 mb - 0.00 in0.0 mm 0.09 in2.3 mm
01:57 AM 39.4°F4.1°C 35.6°F2.0°C 86% 6.9 mph E11.1 kmh E 11.0 mph17.7 kmh 29.85 in1010.8 mb - 0.00 in0.0 mm 0.09 in2.3 mm
01:52 AM 39.4°F4.1°C 35.6°F2.0°C 86% 6.9 mph SSE11.1 kmh SSE 6.9 mph11.1 kmh 29.86 in1011.2 mb - 0.00 in0.0 mm 0.09 in2.3 mm
01:47 AM 39.4°F4.1°C 35.6°F2.0°C 86% 6.0 mph SE9.7 kmh SE 8.1 mph13.0 kmh 29.86 in1011.2 mb - 0.00 in0.0 mm 0.09 in2.3 mm
01:42 AM 39.6°F4.2°C 35.4°F1.9°C 85% 6.0 mph E9.7 kmh E 13.0 mph20.9 kmh 29.86 in1011.2 mb - 0.00 in0.0 mm 0.09 in2.3 mm
01:37 AM 39.6°F4.2°C 35.4°F1.9°C 85% 6.9 mph E11.1 kmh E 4.9 mph7.9 kmh 29.86 in1011.2 mb - 0.00 in0.0 mm 0.09 in2.3 mm
01:32 AM 39.6°F4.2°C 35.4°F1.9°C 85% 6.9 mph SE11.1 kmh SE 6.0 mph9.7 kmh 29.86 in1011.2 mb - 0.00 in0.0 mm 0.09 in2.3 mm
01:27 AM 39.6°F4.2°C 35.8°F2.1°C 86% 8.1 mph NE13.0 kmh NE 8.9 mph14.3 kmh 29.86 in1011.2 mb - 0.00 in0.0 mm 0.09 in2.3 mm
01:22 AM 39.6°F4.2°C 35.8°F2.1°C 86% 6.9 mph E11.1 kmh E 2.9 mph4.7 kmh 29.88 in1011.9 mb - 0.00 in0.0 mm 0.09 in2.3 mm
01:17 AM 39.6°F4.2°C 36.0°F2.2°C 87% 4.9 mph SSE7.9 kmh SSE 2.9 mph4.7 kmh 29.87 in1011.5 mb - 0.00 in0.0 mm 0.09 in2.3 mm
01:12 AM 39.4°F4.1°C 35.8°F2.1°C 87% 4.9 mph E7.9 kmh E 8.9 mph14.3 kmh 29.88 in1011.9 mb - 0.00 in0.0 mm 0.09 in2.3 mm
01:07 AM 39.6°F4.2°C 36.0°F2.2°C 87% 6.9 mph E11.1 kmh E 6.0 mph9.7 kmh 29.86 in1011.2 mb - 0.00 in0.0 mm 0.09 in2.3 mm
01:02 AM 39.4°F4.1°C 36.1°F2.3°C 88% 6.0 mph SE9.7 kmh SE 4.9 mph7.9 kmh 29.87 in1011.5 mb - 0.00 in0.0 mm 0.09 in2.3 mm
12:57 AM 39.6°F4.2°C 36.0°F2.2°C 87% 6.0 mph E9.7 kmh E 2.9 mph4.7 kmh 29.86 in1011.2 mb - 0.00 in0.0 mm 0.09 in2.3 mm
12:52 AM 39.4°F4.1°C 36.1°F2.3°C 88% 6.9 mph E11.1 kmh E 2.9 mph4.7 kmh 29.87 in1011.5 mb - 0.00 in0.0 mm 0.09 in2.3 mm
12:47 AM 39.2°F4.0°C 36.0°F2.2°C 88% 6.0 mph E9.7 kmh E 8.1 mph13.0 kmh 29.88 in1011.9 mb - 0.00 in0.0 mm 0.08 in2.0 mm
12:42 AM 39.2°F4.0°C 36.0°F2.2°C 88% 6.0 mph E9.7 kmh E 8.1 mph13.0 kmh 29.87 in1011.5 mb - 0.00 in0.0 mm 0.08 in2.0 mm
12:37 AM 39.0°F3.9°C 35.8°F2.1°C 88% 8.9 mph NW14.3 kmh NW 8.1 mph13.0 kmh 29.87 in1011.5 mb - 0.00 in0.0 mm 0.08 in2.0 mm
12:32 AM 38.8°F3.8°C 35.6°F2.0°C 88% 8.1 mph ESE13.0 kmh ESE 8.9 mph14.3 kmh 29.86 in1011.2 mb - 0.03 in0.8 mm 0.08 in2.0 mm
12:27 AM 38.8°F3.8°C 35.6°F2.0°C 88% 10.1 mph SE16.3 kmh SE 8.1 mph13.0 kmh 29.86 in1011.2 mb - 0.06 in1.5 mm 0.08 in2.0 mm
12:22 AM 38.7°F3.7°C 35.4°F1.9°C 88% 12.1 mph NE19.5 kmh NE 8.9 mph14.3 kmh 29.86 in1011.2 mb - 0.14 in3.6 mm 0.07 in1.8 mm
12:17 AM 38.8°F3.8°C 35.6°F2.0°C 88% 10.1 mph N16.3 kmh N 19.0 mph30.6 kmh 29.86 in1011.2 mb - 0.20 in5.1 mm 0.06 in1.5 mm
12:12 AM 39.0°F3.9°C 35.4°F1.9°C 87% 11.0 mph 17.7 kmh 29.1 mph46.8 kmh 29.86 in1011.2 mb - 0.24 in6.1 mm 0.04 in1.0 mm
12:07 AM 39.0°F3.9°C 35.4°F1.9°C 87% 8.1 mph 13.0 kmh 17.9 mph28.8 kmh 29.87 in1011.5 mb - 0.42 in10.7 mm 0.01 in0.3 mm
12:02 AM 39.4°F4.1°C 35.8°F2.1°C 87% 8.1 mph NE13.0 kmh NE 4.9 mph7.9 kmh 29.85 in1010.8 mb - 0.15 in3.8 mm 0.56 in14.2 mm